sensor_id;sensor_type;location;lat;lon;timestamp;temperature;humidity
15364;DHT22;7781;49.690;6.472;2023-04-03T00:01:39;4.80;9.70
15364;DHT22;7781;49.690;6.472;2023-04-03T00:04:08;4.80;18.00
15364;DHT22;7781;49.690;6.472;2023-04-03T00:06:37;4.80;21.60
15364;DHT22;7781;49.690;6.472;2023-04-03T00:09:05;4.70;1.00
15364;DHT22;7781;49.690;6.472;2023-04-03T00:11:36;4.60;1.00
15364;DHT22;7781;49.690;6.472;2023-04-03T00:14:06;4.60;1.00
15364;DHT22;7781;49.690;6.472;2023-04-03T00:16:36;4.60;1.00
15364;DHT22;7781;49.690;6.472;2023-04-03T00:19:05;4.60;1.00
15364;DHT22;7781;49.690;6.472;2023-04-03T00:21:34;4.60;1.00
15364;DHT22;7781;49.690;6.472;2023-04-03T00:24:04;4.50;1.00
15364;DHT22;7781;49.690;6.472;2023-04-03T00:26:34;4.50;1.00
15364;DHT22;7781;49.690;6.472;2023-04-03T00:29:02;4.60;1.00
15364;DHT22;7781;49.690;6.472;2023-04-03T00:31:35;4.60;1.00
15364;DHT22;7781;49.690;6.472;2023-04-03T00:34:04;4.60;99.90
15364;DHT22;7781;49.690;6.472;2023-04-03T00:36:33;4.70;36.50
15364;DHT22;7781;49.690;6.472;2023-04-03T00:39:03;4.70;1.00
15364;DHT22;7781;49.690;6.472;2023-04-03T00:41:33;4.80;1.00
15364;DHT22;7781;49.690;6.472;2023-04-03T00:44:21;4.70;1.00
15364;DHT22;7781;49.690;6.472;2023-04-03T00:46:51;4.60;99.90
15364;DHT22;7781;49.690;6.472;2023-04-03T00:49:21;4.70;99.90
15364;DHT22;7781;49.690;6.472;2023-04-03T00:51:49;4.60;99.90
15364;DHT22;7781;49.690;6.472;2023-04-03T00:54:18;4.60;99.90
15364;DHT22;7781;49.690;6.472;2023-04-03T00:56:51;4.50;99.90
15364;DHT22;7781;49.690;6.472;2023-04-03T00:59:25;4.50;1.00
15364;DHT22;7781;49.690;6.472;2023-04-03T01:01:56;4.60;1.00
15364;DHT22;7781;49.690;6.472;2023-04-03T01:04:28;4.70;1.00
15364;DHT22;7781;49.690;6.472;2023-04-03T01:06:59;4.70;99.90
15364;DHT22;7781;49.690;6.472;2023-04-03T01:09:29;4.60;99.90
15364;DHT22;7781;49.690;6.472;2023-04-03T01:12:13;4.60;99.90
15364;DHT22;7781;49.690;6.472;2023-04-03T01:14:43;4.50;99.90
15364;DHT22;7781;49.690;6.472;2023-04-03T01:17:41;4.50;1.00
15364;DHT22;7781;49.690;6.472;2023-04-03T01:20:43;4.50;99.90
15364;DHT22;7781;49.690;6.472;2023-04-03T01:23:32;4.40;1.00
15364;DHT22;7781;49.690;6.472;2023-04-03T01:26:04;4.50;49.00
15364;DHT22;7781;49.690;6.472;2023-04-03T01:28:34;4.50;1.00
15364;DHT22;7781;49.690;6.472;2023-04-03T01:31:12;4.40;99.90
15364;DHT22;7781;49.690;6.472;2023-04-03T01:33:46;4.40;1.00
15364;DHT22;7781;49.690;6.472;2023-04-03T01:36:17;4.30;1.00
15364;DHT22;7781;49.690;6.472;2023-04-03T01:38:50;4.20;1.00
15364;DHT22;7781;49.690;6.472;2023-04-03T01:41:20;4.10;1.00
15364;DHT22;7781;49.690;6.472;2023-04-03T01:43:50;4.10;1.00
15364;DHT22;7781;49.690;6.472;2023-04-03T01:46:21;4.00;1.00
15364;DHT22;7781;49.690;6.472;2023-04-03T01:48:53;3.70;99.90
15364;DHT22;7781;49.690;6.472;2023-04-03T01:51:24;3.60;1.00
15364;DHT22;7781;49.690;6.472;2023-04-03T01:53:54;3.60;37.70
15364;DHT22;7781;49.690;6.472;2023-04-03T01:56:24;3.40;1.00
15364;DHT22;7781;49.690;6.472;2023-04-03T01:58:54;3.30;40.40
15364;DHT22;7781;49.690;6.472;2023-04-03T02:01:24;3.10;99.90
15364;DHT22;7781;49.690;6.472;2023-04-03T02:03:55;2.90;99.90
15364;DHT22;7781;49.690;6.472;2023-04-03T02:06:26;2.70;1.00
15364;DHT22;7781;49.690;6.472;2023-04-03T02:08:55;2.50;1.00
15364;DHT22;7781;49.690;6.472;2023-04-03T02:11:24;2.30;1.00
15364;DHT22;7781;49.690;6.472;2023-04-03T02:13:53;2.20;1.00
15364;DHT22;7781;49.690;6.472;2023-04-03T02:16:22;2.10;1.00
15364;DHT22;7781;49.690;6.472;2023-04-03T02:18:50;2.00;1.00
15364;DHT22;7781;49.690;6.472;2023-04-03T02:21:21;1.90;1.00
15364;DHT22;7781;49.690;6.472;2023-04-03T02:23:50;1.80;1.00
15364;DHT22;7781;49.690;6.472;2023-04-03T02:26:19;1.80;5.90
15364;DHT22;7781;49.690;6.472;2023-04-03T02:28:50;1.80;12.20
15364;DHT22;7781;49.690;6.472;2023-04-03T02:31:19;1.80;5.50
15364;DHT22;7781;49.690;6.472;2023-04-03T02:33:48;1.70;10.20
15364;DHT22;7781;49.690;6.472;2023-04-03T02:36:17;1.70;17.30
15364;DHT22;7781;49.690;6.472;2023-04-03T02:38:54;1.70;14.00
15364;DHT22;7781;49.690;6.472;2023-04-03T02:41:23;1.60;17.70
15364;DHT22;7781;49.690;6.472;2023-04-03T02:43:56;1.60;40.60
15364;DHT22;7781;49.690;6.472;2023-04-03T02:46:25;1.50;43.10
15364;DHT22;7781;49.690;6.472;2023-04-03T02:48:58;1.40;72.90
15364;DHT22;7781;49.690;6.472;2023-04-03T02:51:28;1.30;96.60
15364;DHT22;7781;49.690;6.472;2023-04-03T02:54:00;1.30;99.90
15364;DHT22;7781;49.690;6.472;2023-04-03T02:56:33;1.20;99.90
15364;DHT22;7781;49.690;6.472;2023-04-03T02:59:02;1.20;99.90
15364;DHT22;7781;49.690;6.472;2023-04-03T03:01:35;1.10;99.90
15364;DHT22;7781;49.690;6.472;2023-04-03T03:04:05;1.00;99.90
15364;DHT22;7781;49.690;6.472;2023-04-03T03:06:34;0.90;99.90
15364;DHT22;7781;49.690;6.472;2023-04-03T03:09:05;0.90;99.90
15364;DHT22;7781;49.690;6.472;2023-04-03T03:11:36;0.70;99.90
15364;DHT22;7781;49.690;6.472;2023-04-03T03:14:05;0.60;99.90
15364;DHT22;7781;49.690;6.472;2023-04-03T03:16:35;0.60;99.90
15364;DHT22;7781;49.690;6.472;2023-04-03T03:19:06;0.50;99.90
15364;DHT22;7781;49.690;6.472;2023-04-03T03:21:36;0.40;99.90
15364;DHT22;7781;49.690;6.472;2023-04-03T03:24:08;0.40;99.90
15364;DHT22;7781;49.690;6.472;2023-04-03T03:26:42;0.40;99.90
15364;DHT22;7781;49.690;6.472;2023-04-03T03:29:11;0.40;99.90
15364;DHT22;7781;49.690;6.472;2023-04-03T03:31:42;0.40;99.90
15364;DHT22;7781;49.690;6.472;2023-04-03T03:34:10;0.40;99.90
15364;DHT22;7781;49.690;6.472;2023-04-03T03:36:38;0.40;99.90
15364;DHT22;7781;49.690;6.472;2023-04-03T03:39:09;0.40;99.90
15364;DHT22;7781;49.690;6.472;2023-04-03T03:41:38;0.40;99.90
15364;DHT22;7781;49.690;6.472;2023-04-03T03:44:08;0.40;99.90
15364;DHT22;7781;49.690;6.472;2023-04-03T03:46:42;0.40;99.90
15364;DHT22;7781;49.690;6.472;2023-04-03T03:49:12;0.40;99.90
15364;DHT22;7781;49.690;6.472;2023-04-03T03:51:40;0.40;99.90
15364;DHT22;7781;49.690;6.472;2023-04-03T03:54:12;0.40;99.90
15364;DHT22;7781;49.690;6.472;2023-04-03T03:56:41;0.50;99.90
15364;DHT22;7781;49.690;6.472;2023-04-03T03:59:11;0.50;99.90
15364;DHT22;7781;49.690;6.472;2023-04-03T04:01:41;0.50;99.90
15364;DHT22;7781;49.690;6.472;2023-04-03T04:04:13;0.50;99.90
15364;DHT22;7781;49.690;6.472;2023-04-03T04:06:43;0.50;99.90
15364;DHT22;7781;49.690;6.472;2023-04-03T04:09:13;0.60;99.90
15364;DHT22;7781;49.690;6.472;2023-04-03T04:11:42;0.60;99.90
15364;DHT22;7781;49.690;6.472;2023-04-03T04:14:12;0.60;99.90
15364;DHT22;7781;49.690;6.472;2023-04-03T04:16:42;0.60;99.90
15364;DHT22;7781;49.690;6.472;2023-04-03T04:19:16;0.50;99.90
15364;DHT22;7781;49.690;6.472;2023-04-03T04:21:49;0.30;99.90
15364;DHT22;7781;49.690;6.472;2023-04-03T04:24:24;0.30;99.90
15364;DHT22;7781;49.690;6.472;2023-04-03T04:26:54;0.30;99.90
15364;DHT22;7781;49.690;6.472;2023-04-03T04:29:24;0.20;99.90
15364;DHT22;7781;49.690;6.472;2023-04-03T04:31:57;0.20;99.90
15364;DHT22;7781;49.690;6.472;2023-04-03T04:34:28;0.10;99.90
15364;DHT22;7781;49.690;6.472;2023-04-03T04:36:58;0.10;99.90
15364;DHT22;7781;49.690;6.472;2023-04-03T04:39:29;0.00;99.90
15364;DHT22;7781;49.690;6.472;2023-04-03T04:41:58;-0.10;99.90
15364;DHT22;7781;49.690;6.472;2023-04-03T04:44:29;-0.20;99.90
15364;DHT22;7781;49.690;6.472;2023-04-03T04:46:59;-0.20;99.90
15364;DHT22;7781;49.690;6.472;2023-04-03T04:49:29;-0.30;99.90
15364;DHT22;7781;49.690;6.472;2023-04-03T04:52:01;-0.30;99.90
15364;DHT22;7781;49.690;6.472;2023-04-03T04:54:33;-0.30;99.90
15364;DHT22;7781;49.690;6.472;2023-04-03T04:57:02;-0.30;99.90
15364;DHT22;7781;49.690;6.472;2023-04-03T04:59:34;-0.30;99.90
15364;DHT22;7781;49.690;6.472;2023-04-03T05:02:05;-0.30;99.90
15364;DHT22;7781;49.690;6.472;2023-04-03T05:04:35;-0.30;99.90
15364;DHT22;7781;49.690;6.472;2023-04-03T05:07:10;-0.40;99.90
15364;DHT22;7781;49.690;6.472;2023-04-03T05:09:41;-0.40;99.90
15364;DHT22;7781;49.690;6.472;2023-04-03T05:12:11;-0.50;99.90
15364;DHT22;7781;49.690;6.472;2023-04-03T05:14:48;-0.50;99.90
15364;DHT22;7781;49.690;6.472;2023-04-03T05:17:18;-0.50;99.90
15364;DHT22;7781;49.690;6.472;2023-04-03T05:19:51;-0.50;99.90
15364;DHT22;7781;49.690;6.472;2023-04-03T05:22:21;-0.50;99.90
15364;DHT22;7781;49.690;6.472;2023-04-03T05:24:54;-0.40;99.90
15364;DHT22;7781;49.690;6.472;2023-04-03T05:27:25;-0.40;99.90
15364;DHT22;7781;49.690;6.472;2023-04-03T05:29:57;-0.40;99.90
15364;DHT22;7781;49.690;6.472;2023-04-03T05:32:37;-0.40;99.90
15364;DHT22;7781;49.690;6.472;2023-04-03T05:35:29;-0.40;99.90
15364;DHT22;7781;49.690;6.472;2023-04-03T05:38:00;-0.50;99.90
15364;DHT22;7781;49.690;6.472;2023-04-03T05:40:33;-0.40;99.90
15364;DHT22;7781;49.690;6.472;2023-04-03T05:43:04;-0.50;99.90
15364;DHT22;7781;49.690;6.472;2023-04-03T05:45:37;-0.50;99.90
15364;DHT22;7781;49.690;6.472;2023-04-03T05:48:08;-0.50;99.90
15364;DHT22;7781;49.690;6.472;2023-04-03T05:50:38;-0.40;99.90
15364;DHT22;7781;49.690;6.472;2023-04-03T05:53:16;-0.40;99.90
15364;DHT22;7781;49.690;6.472;2023-04-03T05:55:49;-0.40;99.90
15364;DHT22;7781;49.690;6.472;2023-04-03T05:58:18;-0.30;99.90
15364;DHT22;7781;49.690;6.472;2023-04-03T06:00:48;-0.10;99.90
15364;DHT22;7781;49.690;6.472;2023-04-03T06:03:17;-0.10;99.90
15364;DHT22;7781;49.690;6.472;2023-04-03T06:05:49;0.10;99.90
15364;DHT22;7781;49.690;6.472;2023-04-03T06:08:18;0.10;99.90
15364;DHT22;7781;49.690;6.472;2023-04-03T06:10:47;0.20;99.90
15364;DHT22;7781;49.690;6.472;2023-04-03T06:13:18;0.30;99.90
15364;DHT22;7781;49.690;6.472;2023-04-03T06:15:48;0.40;99.90
15364;DHT22;7781;49.690;6.472;2023-04-03T06:18:16;0.50;99.90
15364;DHT22;7781;49.690;6.472;2023-04-03T06:20:47;0.50;99.90
15364;DHT22;7781;49.690;6.472;2023-04-03T06:23:17;0.50;99.90
15364;DHT22;7781;49.690;6.472;2023-04-03T06:25:51;0.50;99.90
15364;DHT22;7781;49.690;6.472;2023-04-03T06:28:20;0.60;99.90
15364;DHT22;7781;49.690;6.472;2023-04-03T06:30:49;0.60;99.90
15364;DHT22;7781;49.690;6.472;2023-04-03T06:33:18;0.80;99.90
15364;DHT22;7781;49.690;6.472;2023-04-03T06:35:47;0.80;99.90
15364;DHT22;7781;49.690;6.472;2023-04-03T06:38:17;0.90;99.90
15364;DHT22;7781;49.690;6.472;2023-04-03T06:40:46;1.10;99.90
15364;DHT22;7781;49.690;6.472;2023-04-03T06:43:16;1.20;99.90
15364;DHT22;7781;49.690;6.472;2023-04-03T06:45:45;1.30;99.90
15364;DHT22;7781;49.690;6.472;2023-04-03T06:48:15;1.40;99.90
15364;DHT22;7781;49.690;6.472;2023-04-03T06:50:46;1.50;99.90
15364;DHT22;7781;49.690;6.472;2023-04-03T06:53:15;1.60;99.90
15364;DHT22;7781;49.690;6.472;2023-04-03T06:55:44;1.70;99.90
15364;DHT22;7781;49.690;6.472;2023-04-03T06:58:13;1.90;99.90
15364;DHT22;7781;49.690;6.472;2023-04-03T07:00:48;2.00;99.90
15364;DHT22;7781;49.690;6.472;2023-04-03T07:03:18;2.20;99.90
15364;DHT22;7781;49.690;6.472;2023-04-03T07:05:49;2.30;99.90
15364;DHT22;7781;49.690;6.472;2023-04-03T07:08:19;2.60;99.90
15364;DHT22;7781;49.690;6.472;2023-04-03T07:10:49;2.80;99.90
15364;DHT22;7781;49.690;6.472;2023-04-03T07:13:19;3.20;99.90
15364;DHT22;7781;49.690;6.472;2023-04-03T07:15:51;3.50;99.90
15364;DHT22;7781;49.690;6.472;2023-04-03T07:18:22;4.10;99.90
15364;DHT22;7781;49.690;6.472;2023-04-03T07:20:51;4.50;99.90
15364;DHT22;7781;49.690;6.472;2023-04-03T07:23:19;5.00;99.90
15364;DHT22;7781;49.690;6.472;2023-04-03T07:25:49;5.40;99.90
15364;DHT22;7781;49.690;6.472;2023-04-03T07:28:19;5.70;99.90
15364;DHT22;7781;49.690;6.472;2023-04-03T07:30:53;6.10;99.90
15364;DHT22;7781;49.690;6.472;2023-04-03T07:33:22;6.40;92.80
15364;DHT22;7781;49.690;6.472;2023-04-03T07:35:55;6.70;1.00
15364;DHT22;7781;49.690;6.472;2023-04-03T07:38:23;6.90;25.30
15364;DHT22;7781;49.690;6.472;2023-04-03T07:40:52;7.00;99.90
15364;DHT22;7781;49.690;6.472;2023-04-03T07:43:22;7.00;1.00
15364;DHT22;7781;49.690;6.472;2023-04-03T07:45:53;7.10;1.00
15364;DHT22;7781;49.690;6.472;2023-04-03T07:48:23;7.10;99.90
15364;DHT22;7781;49.690;6.472;2023-04-03T07:50:52;7.20;1.00
15364;DHT22;7781;49.690;6.472;2023-04-03T07:53:21;7.40;99.90
15364;DHT22;7781;49.690;6.472;2023-04-03T07:55:49;7.60;99.90
15364;DHT22;7781;49.690;6.472;2023-04-03T07:58:22;7.70;1.00
15364;DHT22;7781;49.690;6.472;2023-04-03T08:00:54;7.70;1.00
15364;DHT22;7781;49.690;6.472;2023-04-03T08:03:27;7.70;99.90
15364;DHT22;7781;49.690;6.472;2023-04-03T08:06:02;7.90;60.60
15364;DHT22;7781;49.690;6.472;2023-04-03T08:08:35;8.10;99.90
15364;DHT22;7781;49.690;6.472;2023-04-03T08:11:05;8.10;1.40
15364;DHT22;7781;49.690;6.472;2023-04-03T08:13:35;8.10;99.90
15364;DHT22;7781;49.690;6.472;2023-04-03T08:16:18;8.10;1.00
15364;DHT22;7781;49.690;6.472;2023-04-03T08:18:50;8.10;1.00
15364;DHT22;7781;49.690;6.472;2023-04-03T08:21:19;8.40;1.00
15364;DHT22;7781;49.690;6.472;2023-04-03T08:23:50;8.50;99.90
15364;DHT22;7781;49.690;6.472;2023-04-03T08:26:22;8.50;1.00
15364;DHT22;7781;49.690;6.472;2023-04-03T08:28:52;8.50;72.60
15364;DHT22;7781;49.690;6.472;2023-04-03T08:31:22;8.70;99.90
15364;DHT22;7781;49.690;6.472;2023-04-03T08:33:54;8.70;1.00
15364;DHT22;7781;49.690;6.472;2023-04-03T08:36:24;8.80;99.90
15364;DHT22;7781;49.690;6.472;2023-04-03T08:38:55;9.00;99.90
15364;DHT22;7781;49.690;6.472;2023-04-03T08:41:32;9.00;28.10
15364;DHT22;7781;49.690;6.472;2023-04-03T08:44:14;9.00;99.90
15364;DHT22;7781;49.690;6.472;2023-04-03T08:47:04;9.20;99.90
15364;DHT22;7781;49.690;6.472;2023-04-03T08:49:40;9.30;99.90
15364;DHT22;7781;49.690;6.472;2023-04-03T08:52:18;9.30;1.00
15364;DHT22;7781;49.690;6.472;2023-04-03T08:54:51;9.30;1.00
15364;DHT22;7781;49.690;6.472;2023-04-03T08:57:26;9.20;1.00
15364;DHT22;7781;49.690;6.472;2023-04-03T08:59:59;9.50;99.90
15364;DHT22;7781;49.690;6.472;2023-04-03T09:02:34;9.70;93.70
15364;DHT22;7781;49.690;6.472;2023-04-03T09:05:13;9.90;99.90
15364;DHT22;7781;49.690;6.472;2023-04-03T09:07:46;9.80;99.90
15364;DHT22;7781;49.690;6.472;2023-04-03T09:10:24;9.90;1.30
15364;DHT22;7781;49.690;6.472;2023-04-03T09:13:00;9.80;99.90
15364;DHT22;7781;49.690;6.472;2023-04-03T09:15:34;9.50;99.90
15364;DHT22;7781;49.690;6.472;2023-04-03T09:18:13;9.40;64.00
15364;DHT22;7781;49.690;6.472;2023-04-03T09:20:49;9.40;99.90
15364;DHT22;7781;49.690;6.472;2023-04-03T09:23:26;9.70;1.00
15364;DHT22;7781;49.690;6.472;2023-04-03T09:26:01;9.70;1.00
15364;DHT22;7781;49.690;6.472;2023-04-03T09:28:35;9.70;99.90
15364;DHT22;7781;49.690;6.472;2023-04-03T09:31:21;9.60;1.00
15364;DHT22;7781;49.690;6.472;2023-04-03T09:33:56;9.80;1.00
15364;DHT22;7781;49.690;6.472;2023-04-03T09:36:43;9.80;99.10
15364;DHT22;7781;49.690;6.472;2023-04-03T09:39:14;9.90;1.00
15364;DHT22;7781;49.690;6.472;2023-04-03T09:41:55;10.00;1.00
15364;DHT22;7781;49.690;6.472;2023-04-03T09:44:28;10.00;90.80
15364;DHT22;7781;49.690;6.472;2023-04-03T09:46:57;10.00;99.90
15364;DHT22;7781;49.690;6.472;2023-04-03T09:49:28;9.90;99.90
15364;DHT22;7781;49.690;6.472;2023-04-03T09:51:56;9.90;99.90
15364;DHT22;7781;49.690;6.472;2023-04-03T09:54:32;9.80;99.90
15364;DHT22;7781;49.690;6.472;2023-04-03T09:57:07;9.90;73.10
15364;DHT22;7781;49.690;6.472;2023-04-03T09:59:44;10.20;89.30
15364;DHT22;7781;49.690;6.472;2023-04-03T10:02:28;10.30;99.90
15364;DHT22;7781;49.690;6.472;2023-04-03T10:05:01;10.60;1.00
15364;DHT22;7781;49.690;6.472;2023-04-03T10:07:35;10.70;1.00
15364;DHT22;7781;49.690;6.472;2023-04-03T10:10:18;10.90;1.00
15364;DHT22;7781;49.690;6.472;2023-04-03T10:13:04;10.70;1.00
15364;DHT22;7781;49.690;6.472;2023-04-03T10:15:42;10.80;99.90
15364;DHT22;7781;49.690;6.472;2023-04-03T10:18:26;10.80;99.90
15364;DHT22;7781;49.690;6.472;2023-04-03T10:21:02;10.90;1.00
15364;DHT22;7781;49.690;6.472;2023-04-03T10:23:43;10.70;99.90
15364;DHT22;7781;49.690;6.472;2023-04-03T10:26:21;10.50;99.90
15364;DHT22;7781;49.690;6.472;2023-04-03T10:29:05;10.60;99.90
15364;DHT22;7781;49.690;6.472;2023-04-03T10:31:44;10.80;1.00
15364;DHT22;7781;49.690;6.472;2023-04-03T10:34:24;11.10;1.00
15364;DHT22;7781;49.690;6.472;2023-04-03T10:37:04;11.10;99.90
15364;DHT22;7781;49.690;6.472;2023-04-03T10:39:39;11.20;99.90
15364;DHT22;7781;49.690;6.472;2023-04-03T10:42:16;11.50;99.90
15364;DHT22;7781;49.690;6.472;2023-04-03T10:45:00;11.60;57.50
15364;DHT22;7781;49.690;6.472;2023-04-03T10:47:37;11.60;1.00
15364;DHT22;7781;49.690;6.472;2023-04-03T10:50:22;11.60;99.90
15364;DHT22;7781;49.690;6.472;2023-04-03T10:53:04;11.50;1.00
15364;DHT22;7781;49.690;6.472;2023-04-03T10:55:39;11.70;1.00
15364;DHT22;7781;49.690;6.472;2023-04-03T10:58:18;11.80;1.00
15364;DHT22;7781;49.690;6.472;2023-04-03T11:00:50;11.80;99.90
15364;DHT22;7781;49.690;6.472;2023-04-03T11:03:29;12.00;1.00
15364;DHT22;7781;49.690;6.472;2023-04-03T11:06:02;12.10;1.00
15364;DHT22;7781;49.690;6.472;2023-04-03T11:08:38;12.00;99.40
15364;DHT22;7781;49.690;6.472;2023-04-03T11:11:11;11.90;1.00
15364;DHT22;7781;49.690;6.472;2023-04-03T11:13:44;12.00;1.00
15364;DHT22;7781;49.690;6.472;2023-04-03T11:16:18;12.10;1.00
15364;DHT22;7781;49.690;6.472;2023-04-03T11:18:52;12.20;15.00
15364;DHT22;7781;49.690;6.472;2023-04-03T11:21:27;12.20;1.00
15364;DHT22;7781;49.690;6.472;2023-04-03T11:24:03;12.10;1.00
15364;DHT22;7781;49.690;6.472;2023-04-03T11:26:38;12.30;99.90
15364;DHT22;7781;49.690;6.472;2023-04-03T11:29:13;12.40;1.00
15364;DHT22;7781;49.690;6.472;2023-04-03T11:32:21;12.60;10.20
15364;DHT22;7781;49.690;6.472;2023-04-03T11:34:56;12.90;99.90
15364;DHT22;7781;49.690;6.472;2023-04-03T11:37:31;13.20;1.00
15364;DHT22;7781;49.690;6.472;2023-04-03T11:40:07;13.40;1.00
15364;DHT22;7781;49.690;6.472;2023-04-03T11:42:39;13.50;1.00
15364;DHT22;7781;49.690;6.472;2023-04-03T11:45:23;13.60;1.00
15364;DHT22;7781;49.690;6.472;2023-04-03T11:47:55;14.10;99.90
15364;DHT22;7781;49.690;6.472;2023-04-03T11:50:42;14.20;1.00
15364;DHT22;7781;49.690;6.472;2023-04-03T11:53:34;14.20;99.90
15364;DHT22;7781;49.690;6.472;2023-04-03T11:56:28;14.50;99.90
15364;DHT22;7781;49.690;6.472;2023-04-03T11:59:23;14.60;11.00
15364;DHT22;7781;49.690;6.472;2023-04-03T12:01:53;14.30;1.00
15364;DHT22;7781;49.690;6.472;2023-04-03T12:04:24;14.10;88.40
15364;DHT22;7781;49.690;6.472;2023-04-03T12:07:00;13.90;1.00
15364;DHT22;7781;49.690;6.472;2023-04-03T12:09:34;13.40;74.20
15364;DHT22;7781;49.690;6.472;2023-04-03T12:12:24;13.40;1.00
15364;DHT22;7781;49.690;6.472;2023-04-03T12:14:54;13.70;1.00
15364;DHT22;7781;49.690;6.472;2023-04-03T12:17:26;13.90;1.00
15364;DHT22;7781;49.690;6.472;2023-04-03T12:19:56;14.00;1.00
15364;DHT22;7781;49.690;6.472;2023-04-03T12:22:26;14.20;99.90
15364;DHT22;7781;49.690;6.472;2023-04-03T12:24:55;14.30;27.10
15364;DHT22;7781;49.690;6.472;2023-04-03T12:27:30;14.90;1.00
15364;DHT22;7781;49.690;6.472;2023-04-03T12:30:18;15.20;1.00
15364;DHT22;7781;49.690;6.472;2023-04-03T12:33:10;15.20;1.00
15364;DHT22;7781;49.690;6.472;2023-04-03T12:35:49;15.50;1.00
15364;DHT22;7781;49.690;6.472;2023-04-03T12:38:56;15.70;99.90
15364;DHT22;7781;49.690;6.472;2023-04-03T12:41:33;15.40;68.10
15364;DHT22;7781;49.690;6.472;2023-04-03T12:44:39;15.60;37.20
15364;DHT22;7781;49.690;6.472;2023-04-03T12:47:26;15.60;99.90
15364;DHT22;7781;49.690;6.472;2023-04-03T12:49:56;15.50;1.00
15364;DHT22;7781;49.690;6.472;2023-04-03T12:52:33;15.50;99.90
15364;DHT22;7781;49.690;6.472;2023-04-03T12:55:12;15.40;99.90
15364;DHT22;7781;49.690;6.472;2023-04-03T12:57:42;15.40;1.00
15364;DHT22;7781;49.690;6.472;2023-04-03T13:00:31;15.20;99.90
15364;DHT22;7781;49.690;6.472;2023-04-03T13:03:01;15.10;99.90
15364;DHT22;7781;49.690;6.472;2023-04-03T13:05:32;14.80;99.90
15364;DHT22;7781;49.690;6.472;2023-04-03T13:08:05;14.00;99.90
15364;DHT22;7781;49.690;6.472;2023-04-03T13:10:46;14.00;1.00
15364;DHT22;7781;49.690;6.472;2023-04-03T13:13:16;14.30;1.00
15364;DHT22;7781;49.690;6.472;2023-04-03T13:15:47;14.60;1.00
15364;DHT22;7781;49.690;6.472;2023-04-03T13:18:26;15.20;1.00
15364;DHT22;7781;49.690;6.472;2023-04-03T13:20:59;15.80;99.90
15364;DHT22;7781;49.690;6.472;2023-04-03T13:23:30;16.30;99.90
15364;DHT22;7781;49.690;6.472;2023-04-03T13:26:00;16.60;99.90
15364;DHT22;7781;49.690;6.472;2023-04-03T13:28:31;16.60;99.90
15364;DHT22;7781;49.690;6.472;2023-04-03T13:31:06;16.70;99.90
15364;DHT22;7781;49.690;6.472;2023-04-03T13:33:41;16.60;99.90
15364;DHT22;7781;49.690;6.472;2023-04-03T13:36:18;16.50;99.90
15364;DHT22;7781;49.690;6.472;2023-04-03T13:38:58;16.80;99.90
15364;DHT22;7781;49.690;6.472;2023-04-03T13:41:30;17.00;99.90
15364;DHT22;7781;49.690;6.472;2023-04-03T13:44:22;17.40;99.90
15364;DHT22;7781;49.690;6.472;2023-04-03T13:46:57;17.70;99.90
15364;DHT22;7781;49.690;6.472;2023-04-03T13:49:32;17.60;99.90
15364;DHT22;7781;49.690;6.472;2023-04-03T13:52:22;17.50;99.90
15364;DHT22;7781;49.690;6.472;2023-04-03T13:54:53;17.10;99.90
15364;DHT22;7781;49.690;6.472;2023-04-03T13:57:23;17.20;99.90
15364;DHT22;7781;49.690;6.472;2023-04-03T13:59:54;17.70;99.90
15364;DHT22;7781;49.690;6.472;2023-04-03T14:02:31;17.90;99.90
15364;DHT22;7781;49.690;6.472;2023-04-03T14:05:02;18.40;99.90
15364;DHT22;7781;49.690;6.472;2023-04-03T14:07:32;18.30;99.90
15364;DHT22;7781;49.690;6.472;2023-04-03T14:10:00;17.90;99.90
15364;DHT22;7781;49.690;6.472;2023-04-03T14:12:32;17.50;99.90
15364;DHT22;7781;49.690;6.472;2023-04-03T14:15:04;16.80;99.90
15364;DHT22;7781;49.690;6.472;2023-04-03T14:17:35;16.80;99.90
15364;DHT22;7781;49.690;6.472;2023-04-03T14:20:05;17.00;99.90
15364;DHT22;7781;49.690;6.472;2023-04-03T14:22:34;17.20;99.90
15364;DHT22;7781;49.690;6.472;2023-04-03T14:25:03;17.40;99.90
15364;DHT22;7781;49.690;6.472;2023-04-03T14:27:36;17.50;99.90
15364;DHT22;7781;49.690;6.472;2023-04-03T14:30:11;17.70;99.90
15364;DHT22;7781;49.690;6.472;2023-04-03T14:32:46;17.40;99.90
15364;DHT22;7781;49.690;6.472;2023-04-03T14:35:15;17.40;99.90
15364;DHT22;7781;49.690;6.472;2023-04-03T14:37:45;17.20;99.90
15364;DHT22;7781;49.690;6.472;2023-04-03T14:40:17;17.40;99.90
15364;DHT22;7781;49.690;6.472;2023-04-03T14:42:48;17.50;99.90
15364;DHT22;7781;49.690;6.472;2023-04-03T14:45:18;17.40;99.90
15364;DHT22;7781;49.690;6.472;2023-04-03T14:47:49;17.00;99.90
15364;DHT22;7781;49.690;6.472;2023-04-03T14:50:21;16.40;99.90
15364;DHT22;7781;49.690;6.472;2023-04-03T14:52:53;15.30;99.90
15364;DHT22;7781;49.690;6.472;2023-04-03T14:55:23;15.10;99.90
15364;DHT22;7781;49.690;6.472;2023-04-03T14:57:52;15.30;99.90
15364;DHT22;7781;49.690;6.472;2023-04-03T15:00:24;15.50;99.90
15364;DHT22;7781;49.690;6.472;2023-04-03T15:02:57;15.40;99.90
15364;DHT22;7781;49.690;6.472;2023-04-03T15:05:25;15.40;99.90
15364;DHT22;7781;49.690;6.472;2023-04-03T15:07:56;15.70;99.90
15364;DHT22;7781;49.690;6.472;2023-04-03T15:10:28;15.50;99.90
15364;DHT22;7781;49.690;6.472;2023-04-03T15:12:57;15.70;99.90
15364;DHT22;7781;49.690;6.472;2023-04-03T15:15:28;15.80;99.90
15364;DHT22;7781;49.690;6.472;2023-04-03T15:17:59;15.80;99.90
15364;DHT22;7781;49.690;6.472;2023-04-03T15:20:28;15.60;99.90
15364;DHT22;7781;49.690;6.472;2023-04-03T15:23:00;15.30;99.90
15364;DHT22;7781;49.690;6.472;2023-04-03T15:25:29;14.90;99.90
15364;DHT22;7781;49.690;6.472;2023-04-03T15:27:59;14.70;99.90
15364;DHT22;7781;49.690;6.472;2023-04-03T15:30:28;14.50;63.30
15364;DHT22;7781;49.690;6.472;2023-04-03T15:32:59;14.60;99.90
15364;DHT22;7781;49.690;6.472;2023-04-03T15:35:27;14.60;6.50
15364;DHT22;7781;49.690;6.472;2023-04-03T15:37:56;14.40;33.10
15364;DHT22;7781;49.690;6.472;2023-04-03T15:40:25;13.70;1.00
15364;DHT22;7781;49.690;6.472;2023-04-03T15:42:58;13.80;1.00
15364;DHT22;7781;49.690;6.472;2023-04-03T15:45:29;13.80;1.00
15364;DHT22;7781;49.690;6.472;2023-04-03T15:48:01;13.50;1.00
15364;DHT22;7781;49.690;6.472;2023-04-03T15:50:30;13.10;1.00
15364;DHT22;7781;49.690;6.472;2023-04-03T15:52:59;12.60;1.00
15364;DHT22;7781;49.690;6.472;2023-04-03T15:55:33;12.20;99.90
15364;DHT22;7781;49.690;6.472;2023-04-03T15:58:04;12.00;1.00
15364;DHT22;7781;49.690;6.472;2023-04-03T16:00:33;11.90;1.00
15364;DHT22;7781;49.690;6.472;2023-04-03T16:03:05;11.80;1.00
15364;DHT22;7781;49.690;6.472;2023-04-03T16:05:36;11.60;99.90
15364;DHT22;7781;49.690;6.472;2023-04-03T16:08:05;11.60;1.00
15364;DHT22;7781;49.690;6.472;2023-04-03T16:10:37;11.60;1.00
15364;DHT22;7781;49.690;6.472;2023-04-03T16:13:07;11.40;1.00
15364;DHT22;7781;49.690;6.472;2023-04-03T16:15:36;11.20;1.00
15364;DHT22;7781;49.690;6.472;2023-04-03T16:18:05;11.10;1.00
15364;DHT22;7781;49.690;6.472;2023-04-03T16:20:35;10.90;99.90
15364;DHT22;7781;49.690;6.472;2023-04-03T16:23:04;10.70;1.00
15364;DHT22;7781;49.690;6.472;2023-04-03T16:25:33;10.70;99.90
15364;DHT22;7781;49.690;6.472;2023-04-03T16:28:04;10.70;1.00
15364;DHT22;7781;49.690;6.472;2023-04-03T16:30:34;10.70;36.80
15364;DHT22;7781;49.690;6.472;2023-04-03T16:33:05;10.50;1.00
15364;DHT22;7781;49.690;6.472;2023-04-03T16:35:33;10.30;99.90
15364;DHT22;7781;49.690;6.472;2023-04-03T16:38:03;10.10;1.00